Time;durP1;ratioP1;P1;durP2;ratioP2;P2;SDS_P1;SDS_P2;PMS_P1;PMS_P2;Temp;Humidity;BMP_temperature;BMP_pressure;BME280_temperature;BME280_humidity;BME280_pressure;Samples;Min_cycle;Max_cycle;Signal;HPM_P1;HPM_P2
2020/12/20 00:00:15;;;;;;;59.30;24.73;;;3.10;99.90;;;;;;4375973;32;20153;-79
2020/12/20 00:02:56;;;;;;;62.60;25.23;;;3.10;99.90;;;;;;4370119;32;20204;-79
2020/12/20 00:05:24;;;;;;;62.30;25.50;;;3.10;99.90;;;;;;4382553;32;20144;-77
2020/12/20 00:07:51;;;;;;;63.60;24.97;;;3.10;99.90;;;;;;4378198;32;20228;-78
2020/12/20 00:10:19;;;;;;;64.37;25.00;;;3.00;99.90;;;;;;4374437;32;20220;-77
2020/12/20 00:12:47;;;;;;;64.20;25.10;;;3.00;99.90;;;;;;4370510;32;20171;-77
2020/12/20 00:15:14;;;;;;;65.73;26.43;;;3.00;99.90;;;;;;4378836;32;20164;-78
2020/12/20 00:17:49;;;;;;;62.53;24.90;;;2.90;99.90;;;;;;4368330;32;20218;-78
2020/12/20 00:20:16;;;;;;;63.03;25.53;;;2.90;99.90;;;;;;4367204;32;20208;-77
2020/12/20 00:22:43;;;;;;;61.80;25.63;;;2.90;99.90;;;;;;4380369;32;20168;-78
2020/12/20 00:25:10;;;;;;;62.37;25.47;;;2.90;99.90;;;;;;4370066;32;20151;-77
2020/12/20 00:27:36;;;;;;;64.50;25.33;;;2.90;99.90;;;;;;4375670;32;20440;-77
2020/12/20 00:30:05;;;;;;;66.20;26.33;;;2.90;99.90;;;;;;4376657;32;20483;-76
2020/12/20 00:32:32;;;;;;;66.63;26.13;;;2.90;99.90;;;;;;4368882;32;20171;-76
2020/12/20 00:34:59;;;;;;;69.03;26.70;;;2.90;99.90;;;;;;4372000;32;20168;-77
2020/12/20 00:37:25;;;;;;;70.20;25.70;;;2.90;99.90;;;;;;4365865;32;20148;-76
2020/12/20 00:39:53;;;;;;;61.93;25.93;;;2.90;99.90;;;;;;4369178;32;20175;-76
2020/12/20 00:42:20;;;;;;;67.07;26.67;;;3.00;99.90;;;;;;4374991;32;20214;-76
2020/12/20 00:44:47;;;;;;;65.87;26.70;;;3.00;99.90;;;;;;4370959;32;20187;-76
2020/12/20 00:47:13;;;;;;;72.43;26.90;;;3.00;99.90;;;;;;4378610;32;20173;-76
2020/12/20 00:49:40;;;;;;;69.77;25.37;;;3.00;99.90;;;;;;4366228;32;20152;-77
2020/12/20 00:52:07;;;;;;;62.53;24.77;;;3.00;99.90;;;;;;4379421;32;20144;-76
2020/12/20 00:54:34;;;;;;;65.93;24.97;;;3.00;99.90;;;;;;4375208;32;20422;-76
2020/12/20 00:57:01;;;;;;;61.73;24.10;;;3.00;99.90;;;;;;4383226;32;20148;-75
2020/12/20 00:59:27;;;;;;;57.27;24.17;;;2.90;99.90;;;;;;4374247;32;20514;-76
2020/12/20 01:01:56;;;;;;;66.10;25.40;;;2.90;99.90;;;;;;4383295;32;20156;-76
2020/12/20 01:04:23;;;;;;;62.77;24.27;;;2.90;99.90;;;;;;4384790;32;20167;-75
2020/12/20 01:06:57;;;;;;;60.73;24.27;;;2.90;99.90;;;;;;4396743;32;20171;-75
2020/12/20 01:09:24;;;;;;;61.57;25.20;;;3.00;99.90;;;;;;4387938;32;20151;-77
2020/12/20 01:11:51;;;;;;;62.83;24.53;;;3.00;99.90;;;;;;4386562;32;20178;-76
2020/12/20 01:14:18;;;;;;;59.47;23.23;;;3.00;99.90;;;;;;4380731;32;20498;-76
2020/12/20 01:16:44;;;;;;;60.40;22.90;;;3.00;99.90;;;;;;4375956;32;20186;-76
2020/12/20 01:19:11;;;;;;;57.40;23.03;;;3.10;99.90;;;;;;4373679;32;20433;-75
2020/12/20 01:21:38;;;;;;;57.77;22.70;;;3.10;99.90;;;;;;4380234;32;20467;-75
2020/12/20 01:24:04;;;;;;;56.53;22.70;;;3.00;99.90;;;;;;4369419;32;20165;-75
2020/12/20 01:26:31;;;;;;;56.90;23.37;;;3.00;99.90;;;;;;4383461;32;20148;-75
2020/12/20 01:28:58;;;;;;;56.13;22.57;;;3.10;99.90;;;;;;4377002;32;20184;-77
2020/12/20 01:31:25;;;;;;;57.17;22.93;;;3.10;99.90;;;;;;4378216;32;20205;-77
2020/12/20 01:33:51;;;;;;;66.90;26.43;;;3.10;99.90;;;;;;4382387;32;20210;-77
2020/12/20 01:36:18;;;;;;;55.73;22.70;;;3.10;99.90;;;;;;4368380;32;20194;-77
2020/12/20 01:38:45;;;;;;;54.33;21.10;;;3.10;99.90;;;;;;4367159;32;20465;-77
2020/12/20 01:41:11;;;;;;;54.87;22.30;;;3.00;99.90;;;;;;4368375;32;20221;-76
2020/12/20 01:43:45;;;;;;;54.10;22.70;;;3.00;99.90;;;;;;4369795;32;20505;-76
2020/12/20 01:46:14;;;;;;;49.47;21.17;;;3.10;99.90;;;;;;4368566;32;20149;-76
2020/12/20 01:48:41;;;;;;;56.17;21.53;;;3.10;99.90;;;;;;4368409;32;20175;-76
2020/12/20 01:51:09;;;;;;;57.00;23.30;;;3.10;99.90;;;;;;4368388;32;20451;-76
2020/12/20 01:53:36;;;;;;;53.67;21.33;;;3.20;99.90;;;;;;4368578;32;20509;-76
2020/12/20 01:56:04;;;;;;;55.20;22.13;;;3.10;99.90;;;;;;4369417;32;20430;-77
2020/12/20 01:58:36;;;;;;;60.47;22.40;;;3.10;99.90;;;;;;4369672;32;20162;-76
2020/12/20 02:01:07;;;;;;;58.80;23.67;;;3.20;99.90;;;;;;4381534;32;20453;-76
2020/12/20 02:03:35;;;;;;;60.17;23.40;;;3.20;99.90;;;;;;4392384;32;20151;-76
2020/12/20 02:06:05;;;;;;;57.87;22.43;;;3.30;99.90;;;;;;4381660;32;20435;-76
2020/12/20 02:08:32;;;;;;;61.67;22.70;;;3.40;99.90;;;;;;4380670;32;20206;-75
2020/12/20 02:11:11;;;;;;;56.80;23.57;;;3.20;99.90;;;;;;4364380;32;20206;-74
2020/12/20 02:13:42;;;;;;;57.33;22.73;;;3.20;99.90;;;;;;4371277;32;20217;-73
2020/12/20 02:16:10;;;;;;;57.50;22.90;;;3.20;99.90;;;;;;4377425;32;20490;-75
2020/12/20 02:18:37;;;;;;;62.17;22.30;;;3.10;99.90;;;;;;4370033;32;20622;-73
2020/12/20 02:21:21;;;;;;;61.60;23.63;;;3.10;99.90;;;;;;4371698;32;20201;-75
2020/12/20 02:23:48;;;;;;;60.77;22.50;;;3.20;99.90;;;;;;4373740;32;20175;-73
2020/12/20 02:26:17;;;;;;;62.43;22.90;;;3.20;99.90;;;;;;4372528;32;20233;-74
2020/12/20 02:28:47;;;;;;;60.90;23.27;;;3.20;99.90;;;;;;4370766;32;21072;-74
2020/12/20 02:31:14;;;;;;;66.67;23.87;;;3.20;99.90;;;;;;4379057;32;20174;-76
2020/12/20 02:33:40;;;;;;;62.57;24.00;;;3.20;99.90;;;;;;4372462;32;20160;-74
2020/12/20 02:36:06;;;;;;;64.17;23.33;;;3.20;99.90;;;;;;4382852;32;20155;-75
2020/12/20 02:38:33;;;;;;;64.03;23.70;;;3.20;99.90;;;;;;4372191;32;20189;-74
2020/12/20 02:40:59;;;;;;;65.73;23.80;;;3.20;99.90;;;;;;4376067;32;20139;-74
2020/12/20 02:43:26;;;;;;;72.30;24.90;;;3.30;99.90;;;;;;4375824;32;20203;-74
2020/12/20 02:45:53;;;;;;;71.47;24.13;;;3.20;99.90;;;;;;4380949;32;20160;-74
2020/12/20 02:48:19;;;;;;;67.87;23.10;;;3.20;99.90;;;;;;4373430;32;20211;-74
2020/12/20 02:50:46;;;;;;;73.70;24.53;;;3.20;99.90;;;;;;4367113;32;20212;-72
2020/12/20 02:53:12;;;;;;;65.87;22.70;;;3.20;99.90;;;;;;4374825;32;20167;-72
2020/12/20 02:55:38;;;;;;;69.53;22.60;;;3.20;99.90;;;;;;4372122;32;20201;-73
2020/12/20 02:58:05;;;;;;;69.20;22.37;;;3.10;99.90;;;;;;4368891;32;20408;-75
2020/12/20 03:00:34;;;;;;;69.53;22.53;;;3.00;99.90;;;;;;4377881;32;20596;-73
2020/12/20 03:03:00;;;;;;;66.30;22.67;;;3.00;99.90;;;;;;4369629;32;20147;-74
2020/12/20 03:05:27;;;;;;;67.07;23.03;;;2.90;99.90;;;;;;4374891;32;20199;-73
2020/12/20 03:07:53;;;;;;;63.93;22.63;;;2.90;99.90;;;;;;4373268;32;20427;-73
2020/12/20 03:10:20;;;;;;;73.97;24.20;;;2.80;99.90;;;;;;4377828;32;20429;-76
2020/12/20 03:12:47;;;;;;;65.23;22.40;;;2.80;99.90;;;;;;4366855;32;20256;-75
2020/12/20 03:15:15;;;;;;;71.87;24.80;;;2.80;99.90;;;;;;4373220;32;20194;-73
2020/12/20 03:17:42;;;;;;;70.83;23.47;;;2.90;99.90;;;;;;4372595;32;20171;-75
2020/12/20 03:20:09;;;;;;;65.57;22.70;;;2.90;99.90;;;;;;4368454;32;20486;-74
2020/12/20 03:22:36;;;;;;;66.57;23.30;;;2.90;99.90;;;;;;4377775;32;20169;-72
2020/12/20 03:25:04;;;;;;;69.60;23.17;;;2.70;99.90;;;;;;4374998;32;20153;-73
2020/12/20 03:27:31;;;;;;;70.80;23.27;;;2.70;99.90;;;;;;4370314;32;20155;-73
2020/12/20 03:29:58;;;;;;;71.93;23.77;;;2.80;99.90;;;;;;4379097;32;20490;-74
2020/12/20 03:32:25;;;;;;;71.70;23.87;;;2.80;99.90;;;;;;4367494;32;20215;-73
2020/12/20 03:34:51;;;;;;;66.00;22.80;;;2.70;99.90;;;;;;4376179;32;20200;-72
2020/12/20 03:37:19;;;;;;;73.27;23.40;;;2.70;99.90;;;;;;4369097;32;20216;-74
2020/12/20 03:39:47;;;;;;;65.23;23.57;;;2.70;99.90;;;;;;4374534;32;20402;-74
2020/12/20 03:42:13;;;;;;;64.90;22.27;;;2.60;99.90;;;;;;4371627;32;20156;-74
2020/12/20 03:44:40;;;;;;;70.50;23.50;;;2.70;99.90;;;;;;4370133;32;20171;-75
2020/12/20 03:47:06;;;;;;;65.37;22.57;;;2.70;99.90;;;;;;4373187;32;20152;-75
2020/12/20 03:49:33;;;;;;;64.97;21.83;;;2.80;99.90;;;;;;4371689;32;20187;-73
2020/12/20 03:51:59;;;;;;;65.37;22.97;;;2.70;99.90;;;;;;4373619;32;20170;-73
2020/12/20 03:54:26;;;;;;;65.57;23.13;;;2.80;99.90;;;;;;4366101;32;20216;-75
2020/12/20 03:56:54;;;;;;;68.00;22.77;;;2.80;99.90;;;;;;4375110;32;20153;-74
2020/12/20 03:59:22;;;;;;;63.27;21.83;;;2.80;99.90;;;;;;4369396;32;20198;-74
2020/12/20 04:01:48;;;;;;;63.27;22.67;;;2.80;99.90;;;;;;4375595;32;20535;-75
2020/12/20 04:04:16;;;;;;;67.50;22.57;;;2.80;99.90;;;;;;4367925;32;20490;-74
2020/12/20 04:06:43;;;;;;;61.87;22.27;;;2.70;99.90;;;;;;4375832;32;20148;-75
2020/12/20 04:09:09;;;;;;;62.37;22.03;;;2.80;99.90;;;;;;4374578;32;20201;-74
2020/12/20 04:11:36;;;;;;;62.87;22.77;;;2.70;99.90;;;;;;4377493;32;20152;-78
2020/12/20 04:14:03;;;;;;;62.00;22.07;;;2.80;99.90;;;;;;4374299;32;20182;-75
2020/12/20 04:16:29;;;;;;;64.50;23.03;;;2.80;99.90;;;;;;4374607;32;20259;-74
2020/12/20 04:18:55;;;;;;;63.27;22.93;;;2.80;99.90;;;;;;4375109;32;20155;-74
2020/12/20 04:21:29;;;;;;;64.43;22.97;;;2.70;99.90;;;;;;4367041;32;20148;-74
2020/12/20 04:23:56;;;;;;;64.00;22.80;;;2.70;99.90;;;;;;4368750;32;20212;-75
2020/12/20 04:26:23;;;;;;;70.83;23.63;;;2.80;99.90;;;;;;4373020;32;20175;-74
2020/12/20 04:28:49;;;;;;;63.50;22.93;;;2.80;99.90;;;;;;4372842;32;20998;-74
2020/12/20 04:31:15;;;;;;;64.63;22.87;;;2.90;99.90;;;;;;4368590;32;20165;-74
2020/12/20 04:33:42;;;;;;;63.77;22.87;;;2.90;99.90;;;;;;4370956;32;20140;-74
2020/12/20 04:36:09;;;;;;;62.90;22.53;;;2.90;99.90;;;;;;4372127;32;20459;-75
2020/12/20 04:38:35;;;;;;;60.23;22.43;;;3.00;99.90;;;;;;4371266;32;20447;-74
2020/12/20 04:41:03;;;;;;;63.43;22.47;;;3.00;99.90;;;;;;4373279;32;20160;-74
2020/12/20 04:43:31;;;;;;;61.77;22.57;;;3.00;99.90;;;;;;4369592;32;20152;-74
2020/12/20 04:45:59;;;;;;;54.87;21.47;;;3.00;99.90;;;;;;4372718;32;20148;-74
2020/12/20 04:48:35;;;;;;;56.87;21.60;;;2.90;99.90;;;;;;4371999;32;20493;-73
2020/12/20 04:51:04;;;;;;;57.73;22.80;;;2.90;99.90;;;;;;4370398;32;20246;-74
2020/12/20 04:53:30;;;;;;;59.17;22.40;;;2.90;99.90;;;;;;4370940;32;20140;-74
2020/12/20 04:56:11;;;;;;;57.90;21.63;;;2.90;99.90;;;;;;4372069;32;20179;-73
2020/12/20 04:58:39;;;;;;;59.33;21.83;;;2.80;99.90;;;;;;4370690;32;20182;-76
2020/12/20 05:01:08;;;;;;;59.60;21.33;;;2.90;99.90;;;;;;4373706;32;20182;-75
2020/12/20 05:03:35;;;;;;;56.63;21.53;;;2.90;99.90;;;;;;4369579;32;20148;-76
2020/12/20 05:06:03;;;;;;;57.77;21.57;;;2.90;99.90;;;;;;4366537;32;20144;-79
2020/12/20 05:08:30;;;;;;;57.43;22.20;;;2.80;99.90;;;;;;4368586;32;20151;-75
2020/12/20 05:10:57;;;;;;;54.23;21.30;;;2.90;99.90;;;;;;4377892;32;20486;-78
2020/12/20 05:13:37;;;;;;;58.60;22.83;;;2.90;99.90;;;;;;4368017;32;20140;-77
2020/12/20 05:16:03;;;;;;;60.23;22.30;;;3.00;99.90;;;;;;4365596;32;20206;-75
2020/12/20 05:18:30;;;;;;;55.47;22.03;;;3.00;99.90;;;;;;4372751;32;20153;-76
2020/12/20 05:20:57;;;;;;;59.83;21.67;;;3.00;99.90;;;;;;4371307;32;20406;-75
2020/12/20 05:23:29;;;;;;;59.17;22.60;;;3.00;99.90;;;;;;4371266;32;20171;-74
2020/12/20 05:26:06;;;;;;;57.37;22.27;;;3.10;99.90;;;;;;4365779;32;20572;-74
2020/12/20 05:28:32;;;;;;;55.87;21.97;;;3.10;99.90;;;;;;4369847;32;20510;-74
2020/12/20 05:31:09;;;;;;;57.73;22.23;;;3.10;99.90;;;;;;4373911;32;20156;-78
2020/12/20 05:33:37;;;;;;;53.37;21.67;;;3.10;99.90;;;;;;4376365;32;20169;-74
2020/12/20 05:36:06;;;;;;;59.83;22.73;;;3.10;99.90;;;;;;4365840;32;20179;-74
2020/12/20 05:38:37;;;;;;;55.93;22.67;;;3.10;99.90;;;;;;4373958;32;20160;-77
2020/12/20 05:41:04;;;;;;;59.03;23.67;;;3.10;99.90;;;;;;4364529;32;20152;-74
2020/12/20 05:43:32;;;;;;;58.60;22.93;;;3.00;99.90;;;;;;4364585;32;20168;-75
2020/12/20 05:46:00;;;;;;;58.50;23.10;;;3.00;99.90;;;;;;4349784;33;20206;-74
2020/12/20 05:48:30;;;;;;;57.07;22.70;;;3.00;99.90;;;;;;4364346;32;20579;-74
2020/12/20 05:51:00;;;;;;;57.43;23.77;;;2.90;99.90;;;;;;4365394;32;20168;-74
2020/12/20 05:53:30;;;;;;;63.93;23.03;;;2.90;99.90;;;;;;4364468;32;20530;-77
2020/12/20 05:55:58;;;;;;;65.43;23.70;;;2.80;99.90;;;;;;4365877;32;20384;-72
2020/12/20 05:58:30;;;;;;;65.87;23.27;;;2.90;99.90;;;;;;4366197;32;20496;-72
2020/12/20 06:00:57;;;;;;;64.93;24.97;;;2.90;99.90;;;;;;4366449;32;20136;-74
2020/12/20 06:03:24;;;;;;;61.83;23.43;;;2.90;99.90;;;;;;4366364;32;20140;-73
2020/12/20 06:05:51;;;;;;;61.50;23.47;;;2.90;99.90;;;;;;4379036;32;20199;-74
2020/12/20 06:08:19;;;;;;;63.93;23.93;;;2.90;99.90;;;;;;4380411;32;20228;-73
2020/12/20 06:10:48;;;;;;;65.17;24.63;;;3.00;99.90;;;;;;4385356;32;20215;-75
2020/12/20 06:13:19;;;;;;;67.00;24.70;;;3.10;99.90;;;;;;4380638;32;20230;-75
2020/12/20 06:15:54;;;;;;;64.20;25.10;;;3.10;99.90;;;;;;4380570;32;20214;-75
2020/12/20 06:18:27;;;;;;;63.43;24.80;;;3.10;99.90;;;;;;4381703;32;20166;-75
2020/12/20 06:20:54;;;;;;;63.93;23.80;;;3.00;99.90;;;;;;4380644;32;20143;-74
2020/12/20 06:23:23;;;;;;;68.70;24.80;;;3.00;99.90;;;;;;4380523;32;20166;-74
2020/12/20 06:25:52;;;;;;;68.10;25.07;;;3.10;99.90;;;;;;4380612;32;20140;-74
2020/12/20 06:28:24;;;;;;;63.60;24.63;;;3.20;99.90;;;;;;4382158;32;20557;-75
2020/12/20 06:30:52;;;;;;;66.73;24.67;;;3.20;99.90;;;;;;4381861;32;20156;-74
2020/12/20 06:33:37;;;;;;;63.90;24.73;;;3.20;99.90;;;;;;4380622;32;20156;-75
2020/12/20 06:36:09;;;;;;;72.73;24.80;;;3.10;99.90;;;;;;4381741;32;20182;-74
2020/12/20 06:38:36;;;;;;;67.30;25.63;;;3.10;99.90;;;;;;4380402;32;20166;-74
2020/12/20 06:41:03;;;;;;;61.73;24.33;;;3.20;99.90;;;;;;4380071;32;20155;-74
2020/12/20 06:43:37;;;;;;;60.13;24.67;;;3.30;99.90;;;;;;4380223;32;20524;-74
2020/12/20 06:46:05;;;;;;;67.30;24.40;;;3.30;99.90;;;;;;4379688;32;20141;-74
2020/12/20 06:48:36;;;;;;;63.67;23.83;;;3.30;99.90;;;;;;4379953;32;20474;-74
2020/12/20 06:51:08;;;;;;;66.83;26.23;;;3.40;99.90;;;;;;4380039;32;20140;-74
2020/12/20 06:53:46;;;;;;;71.50;24.30;;;3.30;99.90;;;;;;4380176;32;20182;-74
2020/12/20 06:56:17;;;;;;;60.83;23.57;;;3.30;99.90;;;;;;4380195;32;20170;-74
2020/12/20 06:58:43;;;;;;;60.13;24.20;;;3.30;99.90;;;;;;4381759;32;20143;-75
2020/12/20 07:01:09;;;;;;;66.60;24.80;;;3.30;99.90;;;;;;4379766;32;20148;-74
2020/12/20 07:03:38;;;;;;;62.83;24.70;;;3.20;99.90;;;;;;4379979;32;20177;-75
2020/12/20 07:06:07;;;;;;;64.83;24.53;;;3.20;99.90;;;;;;4380234;32;20136;-75
2020/12/20 07:08:57;;;;;;;66.10;23.87;;;3.20;99.90;;;;;;4381441;32;20190;-75
2020/12/20 07:11:26;;;;;;;68.53;24.47;;;3.10;99.90;;;;;;4380267;32;20158;-75
2020/12/20 07:13:56;;;;;;;60.97;23.87;;;3.10;99.90;;;;;;4365623;32;20471;-75
2020/12/20 07:16:43;;;;;;;64.50;24.40;;;3.20;99.90;;;;;;4380299;32;20148;-74
2020/12/20 07:19:12;;;;;;;64.13;24.87;;;3.30;99.90;;;;;;4380543;32;20517;-74
2020/12/20 07:21:59;;;;;;;65.87;24.53;;;3.30;99.90;;;;;;4379816;32;20177;-75
2020/12/20 07:24:33;;;;;;;65.27;25.03;;;3.30;99.90;;;;;;4379830;32;20136;-75
2020/12/20 07:27:03;;;;;;;70.80;26.23;;;3.40;99.90;;;;;;4379617;32;20186;-75
2020/12/20 07:29:32;;;;;;;77.67;26.90;;;3.40;99.90;;;;;;4379386;32;20160;-74
2020/12/20 07:32:01;;;;;;;67.93;26.80;;;3.30;99.90;;;;;;4379459;32;20189;-74
2020/12/20 07:34:28;;;;;;;76.97;27.17;;;3.30;99.90;;;;;;4379982;32;20171;-73
2020/12/20 07:36:55;;;;;;;66.10;25.70;;;3.20;99.90;;;;;;4380933;32;20450;-73
2020/12/20 07:39:24;;;;;;;72.70;27.00;;;3.20;99.90;;;;;;4380736;32;20198;-74
2020/12/20 07:41:51;;;;;;;67.27;25.73;;;3.20;99.90;;;;;;4380903;32;20234;-74
2020/12/20 07:44:18;;;;;;;69.23;26.67;;;3.00;99.90;;;;;;4380635;32;20532;-74
2020/12/20 07:46:45;;;;;;;70.47;26.77;;;3.00;99.90;;;;;;4379394;32;20136;-74
2020/12/20 07:49:15;;;;;;;71.67;26.93;;;3.10;99.90;;;;;;4379284;32;20151;-74
2020/12/20 07:51:42;;;;;;;66.60;25.93;;;3.10;99.90;;;;;;4378750;32;20500;-73
2020/12/20 07:54:11;;;;;;;68.60;26.07;;;3.20;99.90;;;;;;4378927;32;20209;-74
2020/12/20 07:56:46;;;;;;;74.90;25.97;;;3.10;99.90;;;;;;4380114;32;20183;-73
2020/12/20 07:59:13;;;;;;;63.17;25.87;;;3.10;99.90;;;;;;4379990;32;20472;-74
2020/12/20 08:01:44;;;;;;;72.53;26.87;;;3.10;99.90;;;;;;4378335;32;20164;-75
2020/12/20 08:04:19;;;;;;;68.13;25.77;;;3.10;99.90;;;;;;4380726;32;20147;-74
2020/12/20 08:06:46;;;;;;;67.03;26.63;;;3.00;99.90;;;;;;4380008;32;20439;-74
2020/12/20 08:09:16;;;;;;;68.13;26.83;;;3.00;99.90;;;;;;4379041;32;20148;-75
2020/12/20 08:11:44;;;;;;;63.87;24.73;;;2.90;99.90;;;;;;4380438;32;20136;-74
2020/12/20 08:14:12;;;;;;;66.63;26.83;;;2.90;99.90;;;;;;4366059;32;20179;-75
2020/12/20 08:16:45;;;;;;;73.33;27.97;;;2.90;99.90;;;;;;4380629;32;20220;-75
2020/12/20 08:19:31;;;;;;;72.30;26.33;;;2.90;99.90;;;;;;4379345;32;20148;-75
2020/12/20 08:22:05;;;;;;;68.67;26.40;;;2.90;99.90;;;;;;4380497;32;20242;-75
2020/12/20 08:24:53;;;;;;;65.07;25.27;;;2.90;99.90;;;;;;4379080;32;20186;-75
2020/12/20 08:27:30;;;;;;;64.13;25.13;;;3.00;99.90;;;;;;4380434;32;20144;-75
2020/12/20 08:30:04;;;;;;;63.30;25.73;;;3.00;99.90;;;;;;4378781;32;20466;-74
2020/12/20 08:32:48;;;;;;;69.77;26.67;;;3.00;99.90;;;;;;4380227;32;20187;-75
2020/12/20 08:35:21;;;;;;;68.00;26.50;;;2.90;99.90;;;;;;4378314;32;20140;-75
2020/12/20 08:37:59;;;;;;;73.33;27.03;;;3.00;99.90;;;;;;4380531;32;20478;-76
2020/12/20 08:40:31;;;;;;;68.07;26.27;;;3.00;99.90;;;;;;4379194;32;20188;-76
2020/12/20 08:42:59;;;;;;;64.97;25.87;;;3.00;99.90;;;;;;4379037;32;20230;-75
2020/12/20 08:45:30;;;;;;;70.47;26.10;;;3.00;99.90;;;;;;4378285;32;20458;-76
2020/12/20 08:48:04;;;;;;;72.40;26.83;;;3.00;99.90;;;;;;4378586;32;20198;-74
2020/12/20 08:50:31;;;;;;;73.53;27.47;;;3.00;99.90;;;;;;4378719;32;20136;-74
2020/12/20 08:53:00;;;;;;;74.00;28.70;;;3.10;99.90;;;;;;4378761;32;20192;-75
2020/12/20 08:55:28;;;;;;;69.23;26.13;;;3.10;99.90;;;;;;4380245;32;20171;-76
2020/12/20 08:58:05;;;;;;;72.63;28.07;;;3.00;99.90;;;;;;4378990;32;20144;-75
2020/12/20 09:00:32;;;;;;;69.47;26.80;;;2.90;99.90;;;;;;4378908;32;20131;-75
2020/12/20 09:03:00;;;;;;;75.80;27.97;;;3.00;99.90;;;;;;4378595;32;20195;-75
2020/12/20 09:05:31;;;;;;;69.10;26.97;;;3.00;99.90;;;;;;4378650;32;20147;-75
2020/12/20 09:07:58;;;;;;;78.37;28.47;;;2.90;99.90;;;;;;4378829;32;20233;-74
2020/12/20 09:10:32;;;;;;;78.70;27.67;;;2.90;99.90;;;;;;4378672;32;20194;-75
2020/12/20 09:13:05;;;;;;;86.07;29.90;;;2.90;99.90;;;;;;4381540;32;20521;-75
2020/12/20 09:15:36;;;;;;;84.63;29.40;;;2.80;99.90;;;;;;4381586;32;20210;-75
2020/12/20 09:18:25;;;;;;;82.77;28.27;;;2.90;99.90;;;;;;4381859;32;20144;-76
2020/12/20 09:20:52;;;;;;;82.30;30.23;;;2.90;99.90;;;;;;4381620;32;20147;-75
2020/12/20 09:23:23;;;;;;;82.27;30.53;;;2.90;99.90;;;;;;4381484;32;20175;-73
2020/12/20 09:25:58;;;;;;;85.37;30.07;;;2.90;99.90;;;;;;4382344;32;20158;-74
2020/12/20 09:28:26;;;;;;;76.87;28.80;;;3.00;99.90;;;;;;4381987;32;20206;-75
2020/12/20 09:30:55;;;;;;;84.77;29.80;;;3.10;99.90;;;;;;4382297;32;20140;-74
2020/12/20 09:33:27;;;;;;;81.17;29.27;;;3.00;99.90;;;;;;4382934;32;20236;-74
2020/12/20 09:36:18;;;;;;;82.33;29.47;;;3.10;99.90;;;;;;4383167;32;20136;-73
2020/12/20 09:38:46;;;;;;;81.87;28.90;;;3.10;99.90;;;;;;4382994;32;20190;-73
2020/12/20 09:41:18;;;;;;;74.13;28.37;;;3.10;99.90;;;;;;4380935;32;20354;-75
2020/12/20 09:43:46;;;;;;;81.37;29.37;;;3.00;99.90;;;;;;4381261;32;20144;-74
2020/12/20 09:46:22;;;;;;;79.90;29.23;;;3.10;99.90;;;;;;4381479;32;20198;-74
2020/12/20 09:48:50;;;;;;;82.77;29.20;;;3.10;99.90;;;;;;4382489;32;20140;-74
2020/12/20 09:51:18;;;;;;;87.30;29.03;;;3.10;99.90;;;;;;4380832;32;20198;-74
2020/12/20 09:53:45;;;;;;;81.50;29.10;;;3.00;99.90;;;;;;4367240;32;20524;-74
2020/12/20 09:56:12;;;;;;;83.77;28.73;;;3.00;99.90;;;;;;4382457;32;20474;-73
2020/12/20 09:58:39;;;;;;;81.27;29.33;;;3.00;99.90;;;;;;4382629;32;20531;-74
2020/12/20 10:01:06;;;;;;;84.97;31.20;;;3.00;99.90;;;;;;4380942;32;20422;-74
2020/12/20 10:03:32;;;;;;;82.57;29.87;;;3.10;99.90;;;;;;4382578;32;20231;-75
2020/12/20 10:06:00;;;;;;;80.83;30.57;;;3.10;99.90;;;;;;4381204;32;20148;-74
2020/12/20 10:08:27;;;;;;;84.73;29.77;;;3.20;99.90;;;;;;4382125;32;20370;-74
2020/12/20 10:10:57;;;;;;;78.90;29.73;;;3.30;99.90;;;;;;4380877;32;20202;-73
2020/12/20 10:13:23;;;;;;;74.47;27.93;;;3.30;99.90;;;;;;4382714;32;20396;-73
2020/12/20 10:15:50;;;;;;;69.87;28.00;;;3.30;99.90;;;;;;4380816;32;20186;-73
2020/12/20 10:18:16;;;;;;;77.83;28.00;;;3.40;99.90;;;;;;4381109;32;20203;-74
2020/12/20 10:20:43;;;;;;;67.67;27.20;;;3.40;99.90;;;;;;4380954;32;20342;-74
2020/12/20 10:23:10;;;;;;;69.67;27.60;;;3.40;99.90;;;;;;4382183;32;20132;-74
2020/12/20 10:25:36;;;;;;;70.20;26.67;;;3.50;99.90;;;;;;4380632;32;20162;-74
2020/12/20 10:28:03;;;;;;;67.83;27.33;;;3.60;99.90;;;;;;4380683;32;20164;-73
2020/12/20 10:30:29;;;;;;;68.70;26.97;;;3.60;99.90;;;;;;4380650;32;20186;-73
2020/12/20 10:32:56;;;;;;;69.83;27.03;;;3.70;99.90;;;;;;4383850;32;20152;-73
2020/12/20 10:35:27;;;;;;;63.33;26.43;;;3.70;99.90;;;;;;4380542;32;20136;-74
2020/12/20 10:37:54;;;;;;;70.70;28.63;;;3.80;99.90;;;;;;4381532;32;20136;-73
2020/12/20 10:40:22;;;;;;;66.70;27.87;;;3.70;99.90;;;;;;4395676;32;20578;-74
2020/12/20 10:42:49;;;;;;;70.50;28.00;;;3.70;99.90;;;;;;4395616;32;20193;-73
2020/12/20 10:45:16;;;;;;;72.37;29.43;;;3.80;99.90;;;;;;4397009;32;20136;-74
2020/12/20 10:47:43;;;;;;;65.63;27.43;;;3.90;99.90;;;;;;4392791;32;20194;-75
2020/12/20 10:50:11;;;;;;;68.90;27.00;;;4.00;99.90;;;;;;4381327;32;20158;-74
2020/12/20 10:52:37;;;;;;;65.57;27.83;;;3.90;99.90;;;;;;4380485;32;20140;-74
2020/12/20 10:55:05;;;;;;;69.43;27.33;;;4.00;99.90;;;;;;4380242;32;20363;-73
2020/12/20 10:57:32;;;;;;;65.93;27.23;;;4.00;99.90;;;;;;4381920;32;20243;-73
2020/12/20 10:59:58;;;;;;;64.43;26.93;;;4.00;99.90;;;;;;4395430;32;20201;-74
2020/12/20 11:02:24;;;;;;;68.03;26.77;;;4.00;99.90;;;;;;4395972;32;20201;-74
2020/12/20 11:04:51;;;;;;;71.77;27.47;;;4.10;99.90;;;;;;4395424;32;20454;-74
2020/12/20 11:07:18;;;;;;;76.20;28.57;;;4.00;99.90;;;;;;4395151;32;20175;-74
2020/12/20 11:09:44;;;;;;;74.20;28.57;;;4.00;99.90;;;;;;4395160;32;20205;-75
2020/12/20 11:12:10;;;;;;;76.83;28.53;;;3.90;99.90;;;;;;4395125;32;20166;-74
2020/12/20 11:14:37;;;;;;;77.47;28.77;;;3.90;99.90;;;;;;4395854;32;20156;-74
2020/12/20 11:17:03;;;;;;;76.03;28.13;;;3.90;99.90;;;;;;4395372;32;20409;-74
2020/12/20 11:19:30;;;;;;;81.70;30.33;;;3.90;99.90;;;;;;4395165;32;20166;-74
2020/12/20 11:21:57;;;;;;;79.90;30.53;;;3.80;99.90;;;;;;4394977;32;20148;-73
2020/12/20 11:24:24;;;;;;;81.47;30.57;;;3.60;99.90;;;;;;4394984;32;20135;-73
2020/12/20 11:26:53;;;;;;;81.77;30.97;;;3.50;99.90;;;;;;4394780;32;20411;-73
2020/12/20 11:29:20;;;;;;;87.87;32.87;;;3.40;99.90;;;;;;4394796;32;20165;-73
2020/12/20 11:31:46;;;;;;;88.40;31.87;;;3.40;99.90;;;;;;4394890;32;20196;-74
2020/12/20 11:34:13;;;;;;;84.77;31.60;;;3.30;99.90;;;;;;4380294;32;20159;-74
2020/12/20 11:36:41;;;;;;;76.23;31.13;;;3.40;99.90;;;;;;4364141;32;20491;-75
2020/12/20 11:39:13;;;;;;;79.50;30.13;;;3.40;99.90;;;;;;4366217;32;20148;-74
2020/12/20 11:41:40;;;;;;;79.40;30.47;;;3.40;99.90;;;;;;4375642;32;20153;-74
2020/12/20 11:44:07;;;;;;;77.70;29.80;;;3.50;99.90;;;;;;4372397;32;20231;-73
2020/12/20 11:46:34;;;;;;;74.40;29.90;;;3.50;99.90;;;;;;4378932;32;20518;-73
2020/12/20 11:49:02;;;;;;;73.73;29.40;;;3.50;99.90;;;;;;4377986;32;20466;-74
2020/12/20 11:51:29;;;;;;;72.77;29.30;;;3.50;99.90;;;;;;4377838;32;20191;-74
2020/12/20 11:53:57;;;;;;;72.70;29.00;;;3.40;99.90;;;;;;4379073;32;20459;-73
2020/12/20 11:56:25;;;;;;;73.23;29.23;;;3.20;99.90;;;;;;4380494;32;20401;-74
2020/12/20 11:58:51;;;;;;;71.00;29.83;;;3.10;99.90;;;;;;4379618;32;20143;-71
2020/12/20 12:01:27;;;;;;;72.13;30.43;;;2.90;99.90;;;;;;4379151;32;20176;-71
2020/12/20 12:03:54;;;;;;;73.97;29.83;;;2.90;99.90;;;;;;4379710;32;20215;-72
2020/12/20 12:06:20;;;;;;;73.07;29.93;;;2.90;99.90;;;;;;4368235;32;20144;-73
2020/12/20 12:08:47;;;;;;;72.47;29.83;;;2.90;99.90;;;;;;4365012;32;20163;-74
2020/12/20 12:11:18;;;;;;;70.30;27.90;;;2.80;99.90;;;;;;4376219;32;20167;-73
2020/12/20 12:13:45;;;;;;;69.53;27.83;;;2.80;99.90;;;;;;4371208;32;20198;-73
2020/12/20 12:16:15;;;;;;;67.93;28.90;;;2.70;99.90;;;;;;4369023;32;20206;-72
2020/12/20 12:18:42;;;;;;;69.60;28.77;;;2.60;99.90;;;;;;4377088;32;20199;-72
2020/12/20 12:21:15;;;;;;;68.00;27.87;;;2.50;99.90;;;;;;4375644;32;20545;-73
2020/12/20 12:23:45;;;;;;;73.27;29.03;;;2.50;99.90;;;;;;4371739;32;20604;-73
2020/12/20 12:26:16;;;;;;;66.97;27.57;;;2.40;99.90;;;;;;4368419;32;20156;-73
2020/12/20 12:28:44;;;;;;;70.73;26.80;;;2.30;99.90;;;;;;4378261;32;20194;-72
2020/12/20 12:31:10;;;;;;;71.80;27.83;;;2.30;99.90;;;;;;4375859;32;20443;-73
2020/12/20 12:33:38;;;;;;;71.20;28.77;;;2.30;99.90;;;;;;4370142;32;20147;-72
2020/12/20 12:36:05;;;;;;;66.70;26.97;;;2.30;99.90;;;;;;4369204;32;20160;-73
2020/12/20 12:38:32;;;;;;;64.00;26.67;;;2.30;99.90;;;;;;4374253;32;20167;-74
2020/12/20 12:40:59;;;;;;;65.30;27.13;;;2.40;99.90;;;;;;4375051;32;20547;-75
2020/12/20 12:43:26;;;;;;;61.77;25.83;;;2.50;99.90;;;;;;4355573;32;20226;-74